sensor_id;sensor_type;location;lat;lon;timestamp;pressure;altitude;pressure_sealevel;temperature;humidity
15694;BME280;7947;48.834;9.132;2023-07-20T00:01:16;98021.97;;;21.29;53.00
15694;BME280;7947;48.834;9.132;2023-07-20T00:04:19;98025.50;;;21.30;52.77
15694;BME280;7947;48.834;9.132;2023-07-20T00:07:24;98020.13;;;21.33;53.13
15694;BME280;7947;48.834;9.132;2023-07-20T00:10:27;98026.50;;;21.37;51.80
15694;BME280;7947;48.834;9.132;2023-07-20T00:13:29;98027.84;;;21.43;50.53
15694;BME280;7947;48.834;9.132;2023-07-20T00:16:32;98040.59;;;21.39;50.13
15694;BME280;7947;48.834;9.132;2023-07-20T00:19:35;98036.97;;;21.35;49.78
15694;BME280;7947;48.834;9.132;2023-07-20T00:22:40;98033.78;;;21.33;49.65
15694;BME280;7947;48.834;9.132;2023-07-20T00:25:42;98036.75;;;21.28;48.89
15694;BME280;7947;48.834;9.132;2023-07-20T00:28:46;98037.44;;;21.25;49.44
15694;BME280;7947;48.834;9.132;2023-07-20T00:31:48;98034.50;;;21.18;48.86
15694;BME280;7947;48.834;9.132;2023-07-20T00:34:52;98036.13;;;21.19;48.02
15694;BME280;7947;48.834;9.132;2023-07-20T00:37:57;98037.81;;;21.12;48.21
15694;BME280;7947;48.834;9.132;2023-07-20T00:40:59;98037.97;;;21.03;48.36
15694;BME280;7947;48.834;9.132;2023-07-20T00:44:03;98034.31;;;20.99;48.77
15694;BME280;7947;48.834;9.132;2023-07-20T00:47:06;98043.75;;;20.90;48.79
15694;BME280;7947;48.834;9.132;2023-07-20T00:50:09;98036.41;;;20.78;49.43
15694;BME280;7947;48.834;9.132;2023-07-20T00:53:14;98042.75;;;20.70;49.52
15694;BME280;7947;48.834;9.132;2023-07-20T00:56:17;98042.22;;;20.64;49.32
15694;BME280;7947;48.834;9.132;2023-07-20T00:59:23;98043.22;;;20.60;49.76
15694;BME280;7947;48.834;9.132;2023-07-20T01:02:26;98045.84;;;20.56;49.63
15694;BME280;7947;48.834;9.132;2023-07-20T01:05:38;98045.94;;;20.48;49.48
15694;BME280;7947;48.834;9.132;2023-07-20T01:08:49;98037.66;;;20.44;50.00
15694;BME280;7947;48.834;9.132;2023-07-20T01:12:02;98040.28;;;20.41;49.98
15694;BME280;7947;48.834;9.132;2023-07-20T01:15:07;98041.88;;;20.42;50.01
15694;BME280;7947;48.834;9.132;2023-07-20T01:18:10;98040.53;;;20.36;50.49
15694;BME280;7947;48.834;9.132;2023-07-20T01:24:57;98031.78;;;20.30;50.48
15694;BME280;7947;48.834;9.132;2023-07-20T01:28:28;98034.06;;;20.28;50.79
15694;BME280;7947;48.834;9.132;2023-07-20T01:31:38;98042.09;;;20.25;51.52
15694;BME280;7947;48.834;9.132;2023-07-20T01:34:44;98042.78;;;20.22;51.38
15694;BME280;7947;48.834;9.132;2023-07-20T01:37:47;98043.13;;;20.20;51.45
15694;BME280;7947;48.834;9.132;2023-07-20T01:40:51;98049.88;;;20.14;51.66
15694;BME280;7947;48.834;9.132;2023-07-20T01:43:57;98048.50;;;20.08;51.87
15694;BME280;7947;48.834;9.132;2023-07-20T01:47:02;98040.56;;;20.03;52.40
15694;BME280;7947;48.834;9.132;2023-07-20T01:50:06;98043.03;;;19.96;52.56
15694;BME280;7947;48.834;9.132;2023-07-20T01:53:09;98042.47;;;19.91;52.37
15694;BME280;7947;48.834;9.132;2023-07-20T01:56:13;98045.06;;;19.87;53.10
15694;BME280;7947;48.834;9.132;2023-07-20T01:59:15;98041.19;;;19.88;53.42
15694;BME280;7947;48.834;9.132;2023-07-20T02:02:20;98051.16;;;19.84;53.45
15694;BME280;7947;48.834;9.132;2023-07-20T02:05:23;98048.00;;;19.82;53.65
15694;BME280;7947;48.834;9.132;2023-07-20T02:08:26;98047.28;;;19.73;54.06
15694;BME280;7947;48.834;9.132;2023-07-20T02:11:29;98050.81;;;19.73;54.85
15694;BME280;7947;48.834;9.132;2023-07-20T02:14:32;98052.63;;;19.69;54.86
15694;BME280;7947;48.834;9.132;2023-07-20T02:17:36;98052.69;;;19.61;55.52
15694;BME280;7947;48.834;9.132;2023-07-20T02:20:42;98050.19;;;19.56;56.63
15694;BME280;7947;48.834;9.132;2023-07-20T02:23:45;98054.47;;;19.45;57.02
15694;BME280;7947;48.834;9.132;2023-07-20T02:26:48;98051.63;;;19.41;57.39
15694;BME280;7947;48.834;9.132;2023-07-20T02:29:51;98055.19;;;19.33;57.89
15694;BME280;7947;48.834;9.132;2023-07-20T02:32:55;98049.88;;;19.16;58.34
15694;BME280;7947;48.834;9.132;2023-07-20T02:36:00;98059.19;;;19.07;58.31
15694;BME280;7947;48.834;9.132;2023-07-20T02:39:03;98054.94;;;18.97;58.04
15694;BME280;7947;48.834;9.132;2023-07-20T02:42:06;98055.50;;;18.90;58.65
15694;BME280;7947;48.834;9.132;2023-07-20T02:45:09;98053.75;;;18.86;58.57
15694;BME280;7947;48.834;9.132;2023-07-20T02:48:13;98051.13;;;18.77;59.16
15694;BME280;7947;48.834;9.132;2023-07-20T02:51:16;98055.88;;;18.80;59.15
15694;BME280;7947;48.834;9.132;2023-07-20T02:54:19;98055.28;;;18.75;58.95
15694;BME280;7947;48.834;9.132;2023-07-20T02:57:22;98058.00;;;18.75;58.98
15694;BME280;7947;48.834;9.132;2023-07-20T03:00:25;98062.75;;;18.78;59.19
15694;BME280;7947;48.834;9.132;2023-07-20T03:03:29;98066.28;;;18.78;59.37
15694;BME280;7947;48.834;9.132;2023-07-20T03:06:32;98064.88;;;18.72;59.21
15694;BME280;7947;48.834;9.132;2023-07-20T03:09:37;98068.13;;;18.66;59.59
15694;BME280;7947;48.834;9.132;2023-07-20T03:12:41;98066.03;;;18.63;58.97
15694;BME280;7947;48.834;9.132;2023-07-20T03:15:43;98071.63;;;18.66;59.37
15694;BME280;7947;48.834;9.132;2023-07-20T03:18:48;98078.31;;;18.69;59.07
15694;BME280;7947;48.834;9.132;2023-07-20T03:21:51;98070.03;;;18.65;58.96
15694;BME280;7947;48.834;9.132;2023-07-20T03:24:54;98068.56;;;18.68;58.75
15694;BME280;7947;48.834;9.132;2023-07-20T03:27:57;98069.50;;;18.72;58.74
15694;BME280;7947;48.834;9.132;2023-07-20T03:31:00;98078.59;;;18.76;58.72
15694;BME280;7947;48.834;9.132;2023-07-20T03:34:04;98078.28;;;18.77;59.19
15694;BME280;7947;48.834;9.132;2023-07-20T03:37:07;98076.06;;;18.71;59.12
15694;BME280;7947;48.834;9.132;2023-07-20T03:40:11;98073.34;;;18.71;59.08
15694;BME280;7947;48.834;9.132;2023-07-20T03:43:14;98079.91;;;18.70;59.21
15694;BME280;7947;48.834;9.132;2023-07-20T03:46:17;98077.19;;;18.70;59.45
15694;BME280;7947;48.834;9.132;2023-07-20T03:49:21;98084.09;;;18.67;59.40
15694;BME280;7947;48.834;9.132;2023-07-20T03:52:24;98083.00;;;18.60;59.99
15694;BME280;7947;48.834;9.132;2023-07-20T03:55:27;98079.34;;;18.56;60.63
15694;BME280;7947;48.834;9.132;2023-07-20T03:58:30;98083.50;;;18.53;60.88
15694;BME280;7947;48.834;9.132;2023-07-20T04:01:33;98088.47;;;18.51;61.09
15694;BME280;7947;48.834;9.132;2023-07-20T04:04:40;98085.47;;;18.44;61.23
15694;BME280;7947;48.834;9.132;2023-07-20T04:07:43;98092.03;;;18.43;61.84
15694;BME280;7947;48.834;9.132;2023-07-20T04:10:45;98091.38;;;18.38;61.64
15694;BME280;7947;48.834;9.132;2023-07-20T04:13:48;98100.97;;;18.35;61.73
15694;BME280;7947;48.834;9.132;2023-07-20T04:16:51;98094.28;;;18.33;61.67
15694;BME280;7947;48.834;9.132;2023-07-20T04:19:55;98099.19;;;18.39;62.13
15694;BME280;7947;48.834;9.132;2023-07-20T04:22:58;98095.38;;;18.40;62.30
15694;BME280;7947;48.834;9.132;2023-07-20T04:26:01;98097.44;;;18.43;62.34
15694;BME280;7947;48.834;9.132;2023-07-20T04:29:04;98103.97;;;18.51;62.90
15694;BME280;7947;48.834;9.132;2023-07-20T04:32:07;98098.22;;;18.52;62.43
15694;BME280;7947;48.834;9.132;2023-07-20T04:35:51;98102.88;;;18.52;62.39
15694;BME280;7947;48.834;9.132;2023-07-20T04:38:54;98100.63;;;18.54;62.51
15694;BME280;7947;48.834;9.132;2023-07-20T04:41:57;98100.75;;;18.57;63.13
15694;BME280;7947;48.834;9.132;2023-07-20T04:45:00;98102.34;;;18.58;63.30
15694;BME280;7947;48.834;9.132;2023-07-20T04:48:07;98096.41;;;18.65;64.19
15694;BME280;7947;48.834;9.132;2023-07-20T04:51:12;98108.06;;;18.65;63.98
15694;BME280;7947;48.834;9.132;2023-07-20T04:54:15;98109.00;;;18.69;63.41
15694;BME280;7947;48.834;9.132;2023-07-20T04:57:23;98098.28;;;18.73;62.56
15694;BME280;7947;48.834;9.132;2023-07-20T05:00:26;98102.56;;;18.74;61.88
15694;BME280;7947;48.834;9.132;2023-07-20T05:03:29;98102.06;;;18.80;61.31
15694;BME280;7947;48.834;9.132;2023-07-20T05:06:33;98101.69;;;18.90;61.07
15694;BME280;7947;48.834;9.132;2023-07-20T05:09:36;98104.50;;;19.03;61.02
15694;BME280;7947;48.834;9.132;2023-07-20T05:12:39;98106.22;;;19.07;60.74
15694;BME280;7947;48.834;9.132;2023-07-20T05:15:42;98105.81;;;19.17;60.30
15694;BME280;7947;48.834;9.132;2023-07-20T05:18:45;98102.72;;;19.27;59.70
15694;BME280;7947;48.834;9.132;2023-07-20T05:21:49;98103.81;;;19.35;59.53
15694;BME280;7947;48.834;9.132;2023-07-20T05:24:52;98097.63;;;19.46;59.81
15694;BME280;7947;48.834;9.132;2023-07-20T05:27:55;98100.94;;;19.52;59.23
15694;BME280;7947;48.834;9.132;2023-07-20T05:30:58;98100.41;;;19.58;58.95
15694;BME280;7947;48.834;9.132;2023-07-20T05:34:01;98103.84;;;19.67;58.71
15694;BME280;7947;48.834;9.132;2023-07-20T05:37:06;98098.06;;;19.69;59.04
15694;BME280;7947;48.834;9.132;2023-07-20T05:40:09;98104.25;;;19.78;58.40
15694;BME280;7947;48.834;9.132;2023-07-20T05:43:13;98098.81;;;19.90;58.13
15694;BME280;7947;48.834;9.132;2023-07-20T05:46:18;98092.03;;;19.96;57.97
15694;BME280;7947;48.834;9.132;2023-07-20T05:49:22;98087.63;;;20.04;57.94
15694;BME280;7947;48.834;9.132;2023-07-20T05:52:26;98088.34;;;20.13;57.50
15694;BME280;7947;48.834;9.132;2023-07-20T05:55:29;98096.44;;;20.21;57.86
15694;BME280;7947;48.834;9.132;2023-07-20T05:58:32;98094.75;;;20.29;57.73
15694;BME280;7947;48.834;9.132;2023-07-20T06:01:35;98091.69;;;20.42;57.09
15694;BME280;7947;48.834;9.132;2023-07-20T06:04:39;98097.03;;;20.51;56.75
15694;BME280;7947;48.834;9.132;2023-07-20T06:07:43;98096.81;;;20.56;56.62
15694;BME280;7947;48.834;9.132;2023-07-20T06:10:49;98101.47;;;20.67;55.44
15694;BME280;7947;48.834;9.132;2023-07-20T06:13:55;98097.94;;;20.79;55.21
15694;BME280;7947;48.834;9.132;2023-07-20T06:16:58;98102.03;;;20.85;55.86
15694;BME280;7947;48.834;9.132;2023-07-20T06:20:01;98101.94;;;20.94;55.52
15694;BME280;7947;48.834;9.132;2023-07-20T06:23:05;98094.09;;;21.04;55.98
15694;BME280;7947;48.834;9.132;2023-07-20T06:26:08;98097.34;;;21.22;54.72
15694;BME280;7947;48.834;9.132;2023-07-20T06:29:11;98094.84;;;21.29;54.99
15694;BME280;7947;48.834;9.132;2023-07-20T06:32:14;98093.66;;;21.42;54.67
15694;BME280;7947;48.834;9.132;2023-07-20T06:35:17;98094.66;;;21.49;54.77
15694;BME280;7947;48.834;9.132;2023-07-20T06:38:21;98096.31;;;21.66;53.54
15694;BME280;7947;48.834;9.132;2023-07-20T06:41:27;98093.16;;;21.80;53.57
15694;BME280;7947;48.834;9.132;2023-07-20T06:44:33;98095.25;;;21.83;53.67
15694;BME280;7947;48.834;9.132;2023-07-20T06:47:38;98097.13;;;21.94;53.01
15694;BME280;7947;48.834;9.132;2023-07-20T06:50:42;98089.75;;;22.10;53.13
15694;BME280;7947;48.834;9.132;2023-07-20T06:53:47;98084.13;;;22.19;52.39
15694;BME280;7947;48.834;9.132;2023-07-20T06:56:50;98086.34;;;22.29;52.60
15694;BME280;7947;48.834;9.132;2023-07-20T06:59:56;98084.66;;;22.40;52.46
15694;BME280;7947;48.834;9.132;2023-07-20T07:02:58;98078.53;;;22.59;50.75
15694;BME280;7947;48.834;9.132;2023-07-20T07:06:01;98086.16;;;22.69;50.50
15694;BME280;7947;48.834;9.132;2023-07-20T07:09:06;98093.06;;;22.78;50.02
15694;BME280;7947;48.834;9.132;2023-07-20T07:12:11;98090.63;;;22.92;49.66
15694;BME280;7947;48.834;9.132;2023-07-20T07:15:14;98089.38;;;23.05;49.85
15694;BME280;7947;48.834;9.132;2023-07-20T07:18:18;98085.38;;;23.18;49.04
15694;BME280;7947;48.834;9.132;2023-07-20T07:21:22;98077.75;;;23.27;48.79
15694;BME280;7947;48.834;9.132;2023-07-20T07:24:26;98071.84;;;23.25;48.17
15694;BME280;7947;48.834;9.132;2023-07-20T07:27:35;98082.84;;;23.29;47.34
15694;BME280;7947;48.834;9.132;2023-07-20T07:30:39;98085.88;;;23.40;47.68
15694;BME280;7947;48.834;9.132;2023-07-20T07:33:42;98080.75;;;23.57;47.50
15694;BME280;7947;48.834;9.132;2023-07-20T07:36:45;98081.31;;;23.66;46.26
15694;BME280;7947;48.834;9.132;2023-07-20T07:39:50;98066.09;;;23.88;46.82
15694;BME280;7947;48.834;9.132;2023-07-20T07:42:53;98073.72;;;23.98;46.49
15694;BME280;7947;48.834;9.132;2023-07-20T07:45:55;98085.28;;;24.07;44.79
15694;BME280;7947;48.834;9.132;2023-07-20T07:48:58;98067.81;;;24.15;45.48
15694;BME280;7947;48.834;9.132;2023-07-20T07:52:01;98081.78;;;24.29;45.94
15694;BME280;7947;48.834;9.132;2023-07-20T07:55:06;98074.09;;;24.38;44.51
15694;BME280;7947;48.834;9.132;2023-07-20T07:58:10;98075.84;;;24.50;44.77
15694;BME280;7947;48.834;9.132;2023-07-20T08:01:13;98071.31;;;24.61;45.30
15694;BME280;7947;48.834;9.132;2023-07-20T08:04:16;98069.91;;;24.70;45.11
15694;BME280;7947;48.834;9.132;2023-07-20T08:07:19;98076.81;;;24.61;44.20
15694;BME280;7947;48.834;9.132;2023-07-20T08:10:23;98073.13;;;24.27;45.36
15694;BME280;7947;48.834;9.132;2023-07-20T08:13:26;98087.84;;;24.19;46.09
15694;BME280;7947;48.834;9.132;2023-07-20T08:16:29;98080.13;;;24.25;46.47
15694;BME280;7947;48.834;9.132;2023-07-20T08:19:32;98086.19;;;24.14;45.81
15694;BME280;7947;48.834;9.132;2023-07-20T08:22:36;98083.34;;;23.88;46.32
15694;BME280;7947;48.834;9.132;2023-07-20T08:25:41;98078.41;;;23.97;47.35
15694;BME280;7947;48.834;9.132;2023-07-20T08:28:45;98077.69;;;24.20;45.42
15694;BME280;7947;48.834;9.132;2023-07-20T08:31:49;98071.44;;;24.45;44.33
15694;BME280;7947;48.834;9.132;2023-07-20T08:34:52;98079.69;;;24.68;44.30
15694;BME280;7947;48.834;9.132;2023-07-20T08:37:55;98069.78;;;24.86;43.44
15694;BME280;7947;48.834;9.132;2023-07-20T08:41:00;98068.53;;;25.06;42.13
15694;BME280;7947;48.834;9.132;2023-07-20T08:44:03;98072.19;;;25.17;41.84
15694;BME280;7947;48.834;9.132;2023-07-20T08:47:06;98072.56;;;24.89;41.70
15694;BME280;7947;48.834;9.132;2023-07-20T08:50:11;98072.31;;;24.72;42.85
15694;BME280;7947;48.834;9.132;2023-07-20T08:53:15;98064.56;;;24.77;44.33
15694;BME280;7947;48.834;9.132;2023-07-20T08:56:19;98072.41;;;25.05;42.39
15694;BME280;7947;48.834;9.132;2023-07-20T08:59:23;98060.19;;;25.29;40.60
15694;BME280;7947;48.834;9.132;2023-07-20T09:02:27;98060.53;;;25.53;41.21
15694;BME280;7947;48.834;9.132;2023-07-20T09:05:31;98067.41;;;25.70;40.14
15694;BME280;7947;48.834;9.132;2023-07-20T09:08:37;98049.63;;;25.57;40.73
15694;BME280;7947;48.834;9.132;2023-07-20T09:11:42;98063.69;;;25.26;41.41
15694;BME280;7947;48.834;9.132;2023-07-20T09:14:45;98068.59;;;24.83;41.35
15694;BME280;7947;48.834;9.132;2023-07-20T09:17:49;98064.78;;;24.69;43.04
15694;BME280;7947;48.834;9.132;2023-07-20T09:20:52;98056.09;;;24.89;40.89
15694;BME280;7947;48.834;9.132;2023-07-20T09:23:56;98057.97;;;25.08;41.61
15694;BME280;7947;48.834;9.132;2023-07-20T09:27:01;98055.19;;;25.38;39.15
15694;BME280;7947;48.834;9.132;2023-07-20T09:30:07;98054.00;;;25.65;38.86
15694;BME280;7947;48.834;9.132;2023-07-20T09:33:18;98051.16;;;25.91;38.70
15694;BME280;7947;48.834;9.132;2023-07-20T09:36:26;98059.25;;;26.10;38.25
15694;BME280;7947;48.834;9.132;2023-07-20T09:39:32;98046.34;;;26.18;37.37
15694;BME280;7947;48.834;9.132;2023-07-20T09:43:07;98044.41;;;26.22;37.31
15694;BME280;7947;48.834;9.132;2023-07-20T09:46:13;98047.31;;;26.39;36.42
15694;BME280;7947;48.834;9.132;2023-07-20T09:49:39;98050.97;;;26.54;36.02
15694;BME280;7947;48.834;9.132;2023-07-20T09:52:46;98041.28;;;26.67;35.41
15694;BME280;7947;48.834;9.132;2023-07-20T09:55:53;98046.13;;;26.84;34.84
15694;BME280;7947;48.834;9.132;2023-07-20T09:58:58;98052.78;;;26.83;34.58
15694;BME280;7947;48.834;9.132;2023-07-20T10:02:02;98043.38;;;26.81;34.33
15694;BME280;7947;48.834;9.132;2023-07-20T10:05:08;98038.44;;;26.56;34.20
15694;BME280;7947;48.834;9.132;2023-07-20T10:08:15;98035.06;;;26.30;33.86
15694;BME280;7947;48.834;9.132;2023-07-20T10:11:26;98031.94;;;26.31;35.21
15694;BME280;7947;48.834;9.132;2023-07-20T10:14:35;98037.53;;;26.42;34.77
15694;BME280;7947;48.834;9.132;2023-07-20T10:17:47;98033.69;;;26.53;34.53
15694;BME280;7947;48.834;9.132;2023-07-20T10:20:54;98029.84;;;26.61;34.03
15694;BME280;7947;48.834;9.132;2023-07-20T10:24:01;98024.41;;;26.72;34.30
15694;BME280;7947;48.834;9.132;2023-07-20T10:27:05;98027.69;;;26.88;34.61
15694;BME280;7947;48.834;9.132;2023-07-20T10:30:10;98008.13;;;27.07;32.55
15694;BME280;7947;48.834;9.132;2023-07-20T10:33:14;98010.47;;;27.02;32.39
15694;BME280;7947;48.834;9.132;2023-07-20T10:36:24;98020.59;;;26.91;33.00
15694;BME280;7947;48.834;9.132;2023-07-20T10:39:31;98015.50;;;26.93;32.64
15694;BME280;7947;48.834;9.132;2023-07-20T10:42:35;98011.28;;;27.06;32.07
15694;BME280;7947;48.834;9.132;2023-07-20T10:45:50;98004.22;;;27.15;33.13
15694;BME280;7947;48.834;9.132;2023-07-20T10:49:00;98007.50;;;27.35;32.46
15694;BME280;7947;48.834;9.132;2023-07-20T10:52:04;98005.06;;;27.30;31.92
15694;BME280;7947;48.834;9.132;2023-07-20T10:55:14;97997.19;;;27.25;32.69
15694;BME280;7947;48.834;9.132;2023-07-20T10:58:17;97999.91;;;27.18;32.68
15694;BME280;7947;48.834;9.132;2023-07-20T11:01:27;98003.47;;;27.22;31.44
15694;BME280;7947;48.834;9.132;2023-07-20T11:04:37;97995.59;;;27.17;31.14
15694;BME280;7947;48.834;9.132;2023-07-20T11:07:41;98001.09;;;27.24;30.37
15694;BME280;7947;48.834;9.132;2023-07-20T11:10:44;97994.03;;;27.16;31.94
15694;BME280;7947;48.834;9.132;2023-07-20T11:13:53;97993.16;;;27.08;30.96
15694;BME280;7947;48.834;9.132;2023-07-20T11:17:10;98003.47;;;27.22;32.59
15694;BME280;7947;48.834;9.132;2023-07-20T11:20:14;98002.41;;;27.40;32.15
15694;BME280;7947;48.834;9.132;2023-07-20T11:23:21;97989.84;;;27.57;30.60
15694;BME280;7947;48.834;9.132;2023-07-20T11:26:24;97999.31;;;27.63;31.86
15694;BME280;7947;48.834;9.132;2023-07-20T11:29:27;97992.66;;;27.71;30.31
15694;BME280;7947;48.834;9.132;2023-07-20T11:32:35;97984.03;;;27.80;29.61
15694;BME280;7947;48.834;9.132;2023-07-20T11:35:42;97989.94;;;27.85;29.18
15694;BME280;7947;48.834;9.132;2023-07-20T11:38:46;97982.47;;;27.89;29.74
15694;BME280;7947;48.834;9.132;2023-07-20T11:41:50;97987.97;;;27.93;29.77
15694;BME280;7947;48.834;9.132;2023-07-20T11:44:54;97983.22;;;27.90;30.16
15694;BME280;7947;48.834;9.132;2023-07-20T11:48:00;97974.22;;;28.00;29.64
15694;BME280;7947;48.834;9.132;2023-07-20T11:51:03;97966.75;;;28.18;28.81
15694;BME280;7947;48.834;9.132;2023-07-20T11:54:08;97979.75;;;28.17;29.11
15694;BME280;7947;48.834;9.132;2023-07-20T11:57:16;97968.72;;;28.17;29.51
15694;BME280;7947;48.834;9.132;2023-07-20T12:00:19;97958.44;;;28.11;28.52
15694;BME280;7947;48.834;9.132;2023-07-20T12:03:24;97965.56;;;28.08;29.67
15694;BME280;7947;48.834;9.132;2023-07-20T12:06:27;97958.06;;;28.19;29.48
15694;BME280;7947;48.834;9.132;2023-07-20T12:09:31;97962.00;;;28.29;28.85
15694;BME280;7947;48.834;9.132;2023-07-20T12:12:52;97941.50;;;28.37;28.95
15694;BME280;7947;48.834;9.132;2023-07-20T12:15:55;97948.22;;;28.43;29.32
15694;BME280;7947;48.834;9.132;2023-07-20T12:19:04;97958.44;;;28.42;29.05
15694;BME280;7947;48.834;9.132;2023-07-20T12:22:07;97953.31;;;28.51;28.49
15694;BME280;7947;48.834;9.132;2023-07-20T12:25:10;97956.88;;;28.45;29.10
15694;BME280;7947;48.834;9.132;2023-07-20T12:28:14;97949.00;;;28.36;29.52
15694;BME280;7947;48.834;9.132;2023-07-20T12:31:17;97948.22;;;28.32;29.23
15694;BME280;7947;48.834;9.132;2023-07-20T12:34:22;97941.91;;;28.25;28.37
15694;BME280;7947;48.834;9.132;2023-07-20T12:37:25;97941.91;;;28.25;30.68
15694;BME280;7947;48.834;9.132;2023-07-20T12:40:28;97939.16;;;28.32;28.52
15694;BME280;7947;48.834;9.132;2023-07-20T12:43:31;97915.09;;;28.43;28.44
15694;BME280;7947;48.834;9.132;2023-07-20T12:46:34;97928.47;;;28.48;27.81
15694;BME280;7947;48.834;9.132;2023-07-20T12:49:40;97927.31;;;28.49;27.24
15694;BME280;7947;48.834;9.132;2023-07-20T12:52:46;97922.22;;;28.33;27.77
15694;BME280;7947;48.834;9.132;2023-07-20T12:55:49;97910.38;;;28.33;29.23
15694;BME280;7947;48.834;9.132;2023-07-20T12:58:52;97913.53;;;28.38;27.61
15694;BME280;7947;48.834;9.132;2023-07-20T13:01:55;97905.63;;;28.44;29.34
15694;BME280;7947;48.834;9.132;2023-07-20T13:04:59;97907.59;;;28.50;26.04
15694;BME280;7947;48.834;9.132;2023-07-20T13:08:02;97894.59;;;28.51;27.03
15694;BME280;7947;48.834;9.132;2023-07-20T13:11:09;97896.19;;;28.41;27.24
15694;BME280;7947;48.834;9.132;2023-07-20T13:14:12;97896.94;;;28.45;26.90
15694;BME280;7947;48.834;9.132;2023-07-20T13:17:15;97884.75;;;28.57;27.57
15694;BME280;7947;48.834;9.132;2023-07-20T13:20:20;97894.16;;;28.74;25.73
15694;BME280;7947;48.834;9.132;2023-07-20T13:23:23;97879.16;;;28.75;27.09
15694;BME280;7947;48.834;9.132;2023-07-20T13:26:26;97895.72;;;28.75;27.39
15694;BME280;7947;48.834;9.132;2023-07-20T13:29:28;97894.16;;;28.70;27.02
15694;BME280;7947;48.834;9.132;2023-07-20T13:32:32;97887.47;;;28.68;27.17
15694;BME280;7947;48.834;9.132;2023-07-20T13:35:36;97891.00;;;28.72;27.33
15694;BME280;7947;48.834;9.132;2023-07-20T13:38:42;97887.84;;;28.70;27.18
15694;BME280;7947;48.834;9.132;2023-07-20T13:41:45;97882.72;;;28.68;27.42
15694;BME280;7947;48.834;9.132;2023-07-20T13:44:49;97881.53;;;28.69;28.41
15694;BME280;7947;48.834;9.132;2023-07-20T13:47:52;97870.91;;;28.50;27.49
15694;BME280;7947;48.834;9.132;2023-07-20T13:50:56;97870.19;;;28.28;28.08
15694;BME280;7947;48.834;9.132;2023-07-20T13:54:01;97877.28;;;28.22;28.10
15694;BME280;7947;48.834;9.132;2023-07-20T13:57:25;97861.94;;;28.21;27.67
15694;BME280;7947;48.834;9.132;2023-07-20T14:00:28;97867.81;;;28.34;27.83
15694;BME280;7947;48.834;9.132;2023-07-20T14:03:37;97860.31;;;28.38;27.84
15694;BME280;7947;48.834;9.132;2023-07-20T14:06:42;97854.03;;;28.37;28.10
15694;BME280;7947;48.834;9.132;2023-07-20T14:09:46;97865.03;;;28.41;26.96
15694;BME280;7947;48.834;9.132;2023-07-20T14:12:52;97859.16;;;28.32;27.00
15694;BME280;7947;48.834;9.132;2023-07-20T14:15:55;97840.22;;;28.30;26.76
15694;BME280;7947;48.834;9.132;2023-07-20T14:18:58;97841.41;;;28.33;26.95
15694;BME280;7947;48.834;9.132;2023-07-20T14:22:03;97847.69;;;28.51;25.57
15694;BME280;7947;48.834;9.132;2023-07-20T14:25:06;97844.91;;;28.51;25.40
15694;BME280;7947;48.834;9.132;2023-07-20T14:28:10;97845.69;;;28.62;27.45
15694;BME280;7947;48.834;9.132;2023-07-20T14:31:13;97840.50;;;28.75;25.70
15694;BME280;7947;48.834;9.132;2023-07-20T14:34:16;97833.81;;;28.72;26.16
15694;BME280;7947;48.834;9.132;2023-07-20T14:37:21;97836.19;;;28.74;25.92
15694;BME280;7947;48.834;9.132;2023-07-20T14:40:24;97834.22;;;28.74;25.52
15694;BME280;7947;48.834;9.132;2023-07-20T14:43:27;97821.16;;;28.82;25.69
15694;BME280;7947;48.834;9.132;2023-07-20T14:46:30;97827.47;;;28.82;26.38
15694;BME280;7947;48.834;9.132;2023-07-20T14:49:34;97824.66;;;28.89;25.67
15694;BME280;7947;48.834;9.132;2023-07-20T14:52:38;97827.44;;;28.89;25.48
15694;BME280;7947;48.834;9.132;2023-07-20T14:55:44;97821.94;;;28.86;24.78
15694;BME280;7947;48.834;9.132;2023-07-20T14:58:47;97834.22;;;28.67;25.76
15694;BME280;7947;48.834;9.132;2023-07-20T15:01:50;97830.72;;;28.56;26.12
15694;BME280;7947;48.834;9.132;2023-07-20T15:04:54;97828.38;;;28.55;26.06
15694;BME280;7947;48.834;9.132;2023-07-20T15:07:59;97824.81;;;28.50;25.29
15694;BME280;7947;48.834;9.132;2023-07-20T15:11:02;97816.19;;;28.41;25.93
15694;BME280;7947;48.834;9.132;2023-07-20T15:14:05;97819.72;;;28.38;26.88
15694;BME280;7947;48.834;9.132;2023-07-20T15:17:09;97817.41;;;28.30;26.70
15694;BME280;7947;48.834;9.132;2023-07-20T15:20:13;97804.44;;;28.16;26.85
15694;BME280;7947;48.834;9.132;2023-07-20T15:23:17;97809.53;;;28.11;26.43
15694;BME280;7947;48.834;9.132;2023-07-20T15:26:20;97800.09;;;28.15;27.12
15694;BME280;7947;48.834;9.132;2023-07-20T15:29:24;97805.19;;;28.20;25.94
15694;BME280;7947;48.834;9.132;2023-07-20T15:32:30;97796.91;;;28.24;25.96
15694;BME280;7947;48.834;9.132;2023-07-20T15:35:52;97798.88;;;28.23;26.54
15694;BME280;7947;48.834;9.132;2023-07-20T15:38:57;97781.91;;;28.28;25.71
15694;BME280;7947;48.834;9.132;2023-07-20T15:42:00;97790.97;;;28.32;26.54
15694;BME280;7947;48.834;9.132;2023-07-20T15:45:04;97786.66;;;28.28;25.83
15694;BME280;7947;48.834;9.132;2023-07-20T15:48:07;97773.69;;;28.14;27.57
15694;BME280;7947;48.834;9.132;2023-07-20T15:51:10;97786.28;;;28.15;26.92
15694;BME280;7947;48.834;9.132;2023-07-20T15:54:14;97779.59;;;28.09;26.46
15694;BME280;7947;48.834;9.132;2023-07-20T15:57:17;97779.63;;;27.92;26.51
15694;BME280;7947;48.834;9.132;2023-07-20T16:00:21;97772.16;;;27.78;26.34
15694;BME280;7947;48.834;9.132;2023-07-20T16:03:24;97780.06;;;27.65;26.58
15694;BME280;7947;48.834;9.132;2023-07-20T16:06:38;97772.56;;;27.59;26.67
15694;BME280;7947;48.834;9.132;2023-07-20T16:09:42;97772.19;;;27.43;26.85
15694;BME280;7947;48.834;9.132;2023-07-20T16:12:47;97773.38;;;27.35;26.88
15694;BME280;7947;48.834;9.132;2023-07-20T16:15:50;97768.63;;;27.21;27.22
15694;BME280;7947;48.834;9.132;2023-07-20T16:18:55;97769.75;;;27.06;28.70
15694;BME280;7947;48.834;9.132;2023-07-20T16:21:58;97770.94;;;26.98;27.71
15694;BME280;7947;48.834;9.132;2023-07-20T16:25:02;97770.53;;;26.86;28.03
15694;BME280;7947;48.834;9.132;2023-07-20T16:28:05;97765.41;;;26.84;28.23
15694;BME280;7947;48.834;9.132;2023-07-20T16:31:09;97759.50;;;26.86;28.41
15694;BME280;7947;48.834;9.132;2023-07-20T16:34:12;97755.59;;;26.87;28.25